Latest Weather Observations for Gooseberry Hill

IDW60901

Issued at 8:11 pm WST Thursday 22 June 2017 (issued every 10 minutes, with the page automatically refreshed every 10 minutes)

About weather observations | Map of Perth area stations | Latest observations for Perth area | Other Formats
Station Details ID: 009204 Name: GOOSEBERRY HILL Lat: -31.94 Lon: 116.05 Height: 220.0 m
Data from the previous 72 hours. | See also: Recent months at Gooseberry Hill
Date/Time
WST
Temp
°C
App
Temp
°C
Dew
Point
°C
Rel
Hum
%
Delta-T
°C
Wind Press
QNH
hPa
Press
MSL
hPa
Rain since
9am
mm
Dir  Spd
km/h
Gust
km/h
Spd
kts
Gust
kts
22/08:00pm 11.7 9.0 11.7 100 0.0 SSW 17 28 9 15 - - -
22/07:30pm 11.8 9.1 11.8 100 0.0 SW 17 24 9 13 - - -
22/07:00pm 11.8 8.2 11.8 100 0.0 SW 22 37 12 20 - - -
22/06:30pm 12.1 8.5 11.8 98 0.2 SW 22 32 12 17 - - -
22/06:00pm 12.4 8.8 11.8 96 0.3 SW 22 39 12 21 - - -
22/05:30pm 12.7 7.1 11.4 92 0.7 SW 32 50 17 27 - - -
22/05:27pm 12.7 7.1 11.4 92 0.7 SW 32 50 17 27 - - -
22/05:00pm 12.9 7.7 11.6 92 0.7 SW 30 48 16 26 - - -
22/04:53pm 12.9 8.1 11.8 93 0.6 WSW 28 48 15 26 - - -
22/04:30pm 13.2 9.2 11.9 92 0.7 SW 24 39 13 21 - - -
22/04:00pm 13.5 10.2 11.6 88 1.0 WSW 20 32 11 17 - - -
22/03:30pm 13.3 9.6 11.5 89 1.0 WSW 22 33 12 18 - - -
22/03:00pm 13.2 9.4 11.3 88 1.0 WSW 22 37 12 20 - - -
22/02:30pm 13.3 9.2 11.4 88 1.0 WSW 24 32 13 17 - - -
22/02:00pm 13.3 8.8 11.5 89 1.0 WSW 26 39 14 21 - - -
22/01:30pm 13.2 7.3 11.3 88 1.0 WSW 33 46 18 25 - - -
22/01:09pm 13.3 8.5 11.5 89 1.0 WSW 28 46 15 25 - - -
22/01:00pm 13.4 9.1 12.0 91 0.8 WSW 26 35 14 19 - - -
22/12:42pm 13.4 8.7 12.0 91 0.8 WSW 28 46 15 25 - - -
22/12:30pm 13.5 8.9 12.2 92 0.7 WSW 28 43 15 23 - - -
22/12:00pm 13.8 8.6 12.9 94 0.5 W 32 46 17 25 - - -
22/11:30am 13.8 9.6 13.5 98 0.2 W 28 44 15 24 - - -
22/11:00am 14.1 10.1 14.1 100 0.0 W 28 46 15 25 - - -
22/10:30am 14.2 10.6 14.2 100 0.0 W 26 43 14 23 - - -
22/10:00am 14.2 10.6 14.2 100 0.0 WNW 26 43 14 23 - - -
22/09:30am 14.3 10.4 14.3 100 0.0 WNW 28 41 15 22 - - -
22/09:00am 14.4 10.9 14.4 100 0.0 WNW 26 44 14 24 - - -
22/08:30am 14.3 11.5 14.3 100 0.0 NW 22 44 12 24 - - -
22/08:00am 13.9 11.0 13.9 100 0.0 NW 22 37 12 20 - - -
22/07:30am 13.4 10.3 13.4 100 0.0 N 22 35 12 19 - - -
22/07:05am 13.2 8.5 13.2 100 0.0 N 30 48 16 26 - - -
22/07:00am 13.2 7.9 13.2 100 0.0 N 33 50 18 27 - - -
22/06:30am 12.7 6.5 12.7 100 0.0 NNE 37 57 20 31 - - -
22/06:00am 12.8 5.9 12.8 100 0.0 NNE 41 63 22 34 - - -
22/05:55am 12.8 6.3 12.8 100 0.0 NNE 39 63 21 34 - - -
22/05:30am 12.6 6.4 12.6 100 0.0 NNE 37 56 20 30 - - -
22/05:00am 12.5 7.2 12.5 100 0.0 N 32 56 17 30 - - -
22/04:35am 12.3 6.9 12.3 100 0.0 N 32 50 17 27 - - -
22/04:30am 12.3 6.4 12.3 100 0.0 N 35 50 19 27 - - -
22/04:00am 12.1 6.5 12.1 100 0.0 N 33 50 18 27 - - -
22/03:30am 11.8 6.7 11.8 100 0.0 N 30 52 16 28 - - -
22/03:14am 11.9 6.4 11.9 100 0.0 N 32 52 17 28 - - -
22/03:00am 11.9 6.4 11.9 100 0.0 N 32 46 17 25 - - -
22/02:30am 11.8 7.0 11.8 100 0.0 NNE 28 41 15 22 - - -
22/02:00am 11.9 6.4 11.9 100 0.0 NNE 32 46 17 25 - - -
22/01:30am 11.8 7.8 11.8 100 0.0 N 24 39 13 21 - - -
22/01:00am 11.8 8.2 11.8 100 0.0 N 22 33 12 18 - - -
22/12:30am 11.8 9.1 11.8 100 0.0 N 17 28 9 15 - - -
22/12:00am 11.9 8.3 11.9 100 0.0 N 22 32 12 17 - - -
 
Date/Time
WST
Temp
°C
App
Temp
°C
Dew
Point
°C
Rel
Hum
%
Delta-T
°C
Wind Press
QNH
hPa
Press
MSL
hPa
Rain since
9am
mm
Dir  Spd
km/h
Gust
km/h
Spd
kts
Gust
kts
21/11:30pm 11.9 7.2 11.9 100 0.0 N 28 50 15 27 - - -
21/11:00pm 11.9 7.9 11.9 100 0.0 N 24 37 13 20 - - -
21/10:30pm 11.8 8.5 11.6 99 0.1 N 20 32 11 17 - - -
21/10:00pm 12.1 8.0 11.5 96 0.3 N 24 39 13 21 - - -
21/09:30pm 12.6 8.4 11.0 90 0.8 N 24 39 13 21 - - -
21/09:00pm 12.4 8.8 10.6 89 0.9 N 20 32 11 17 - - -
21/08:30pm 12.2 8.6 10.6 90 0.8 N 20 28 11 15 - - -
21/08:00pm 12.5 8.5 10.4 87 1.1 N 22 32 12 17 - - -
21/07:30pm 12.6 9.3 10.8 89 0.9 N 19 32 10 17 - - -
21/07:00pm 13.6 9.8 9.8 78 2.0 N 20 30 11 16 - - -
21/06:30pm 13.6 10.0 9.8 78 2.0 N 19 30 10 16 - - -
21/06:00pm 13.8 10.3 10.2 79 1.9 N 19 28 10 15 - - -
21/05:30pm 13.8 11.0 10.0 78 2.0 N 15 22 8 12 - - -
21/05:00pm 13.9 10.7 9.9 77 2.1 N 17 24 9 13 - - -
21/04:30pm 15.4 12.3 10.2 71 2.8 NNW 17 28 9 15 - - -
21/04:00pm 16.6 12.8 9.8 64 3.6 NW 20 37 11 20 - - -
21/03:30pm 17.4 12.9 8.5 56 4.6 NW 22 39 12 21 - - -
21/03:00pm 17.7 12.7 8.0 53 5.0 NW 24 41 13 22 - - -
21/02:30pm 18.4 14.3 8.7 53 5.1 WNW 20 41 11 22 - - -
21/02:00pm 18.6 13.3 8.6 52 5.2 NW 26 44 14 24 - - -
21/01:30pm 18.9 15.1 9.7 55 4.9 NW 20 35 11 19 - - -
21/01:00pm 16.8 13.4 9.2 61 4.0 NW 17 32 9 17 - - -
21/12:30pm 16.6 13.3 9.5 63 3.7 NNW 17 30 9 16 - - -
21/12:00pm 18.6 15.3 10.9 61 4.2 N 19 28 10 15 - - -
21/11:30am 18.2 15.6 10.8 62 4.0 NNW 15 26 8 14 - - -
21/11:00am 16.9 15.3 11.6 71 2.9 NNW 11 17 6 9 - - -
21/10:30am 16.0 14.2 11.0 72 2.7 NW 11 20 6 11 - - -
21/10:00am 15.8 13.3 11.0 73 2.6 N 15 20 8 11 - - -
21/09:30am 14.3 12.2 11.1 81 1.7 N 13 20 7 11 - - -
21/09:00am 14.0 12.2 11.0 82 1.6 NNE 11 19 6 10 - - -
21/08:30am 12.7 10.9 10.8 88 1.0 NNE 11 19 6 10 - - -
21/08:00am 12.1 9.4 10.3 89 0.9 NNE 15 22 8 12 - - -
21/07:30am 12.1 9.4 10.5 90 0.8 N 15 22 8 12 - - -
21/07:00am 12.4 10.1 10.6 89 0.9 N 13 19 7 10 - - -
21/06:30am 12.5 10.2 10.4 87 1.1 N 13 17 7 9 - - -
21/06:00am 12.9 10.7 10.8 87 1.1 N 13 22 7 12 - - -
21/05:30am 13.0 10.9 11.1 88 1.0 NNE 13 17 7 9 - - -
21/05:00am 12.9 10.5 11.3 90 0.9 NNE 15 20 8 11 - - -
21/04:30am 12.8 10.8 11.4 91 0.7 N 13 19 7 10 - - -
21/04:00am 12.8 11.2 11.4 91 0.7 N 11 15 6 8 - - -
21/03:30am 12.7 10.7 11.6 93 0.6 N 13 17 7 9 - - -
21/03:00am 12.8 11.6 11.5 92 0.7 N 9 15 5 8 - - -
21/02:30am 12.9 11.7 11.6 92 0.7 NNE 9 11 5 6 - - -
21/02:00am 13.1 11.8 11.3 89 1.0 N 9 13 5 7 - - -
21/01:30am 12.8 10.6 10.9 88 1.0 N 13 19 7 10 - - -
21/01:00am 13.3 11.1 10.8 85 1.3 N 13 19 7 10 - - -
21/12:30am 13.6 11.1 11.0 84 1.4 N 15 19 8 10 - - -
21/12:00am 14.0 11.9 11.0 82 1.6 N 13 22 7 12 - - -
 
Date/Time
WST
Temp
°C
App
Temp
°C
Dew
Point
°C
Rel
Hum
%
Delta-T
°C
Wind Press
QNH
hPa
Press
MSL
hPa
Rain since
9am
mm
Dir  Spd
km/h
Gust
km/h
Spd
kts
Gust
kts
20/11:30pm 14.3 12.3 11.5 83 1.5 N 13 20 7 11 - - -
20/11:00pm 14.4 12.0 11.4 82 1.6 N 15 20 8 11 - - -
20/10:30pm 14.6 12.1 11.2 80 1.8 N 15 22 8 12 - - -
20/10:00pm 14.9 12.4 11.1 78 2.0 N 15 20 8 11 - - -
20/09:30pm 15.3 13.3 11.5 78 2.1 N 13 20 7 11 - - -
20/09:00pm 15.6 13.7 11.8 78 2.1 N 13 17 7 9 - - -
20/08:30pm 15.8 14.3 11.8 77 2.2 N 11 15 6 8 - - -
20/08:00pm 16.0 14.5 11.8 76 2.3 N 11 13 6 7 - - -
20/07:30pm 16.2 15.1 12.0 76 2.3 N 9 13 5 7 - - -
20/07:00pm 16.5 16.0 11.9 74 2.5 N 6 9 3 5 - - -
20/06:30pm 16.7 16.1 11.8 73 2.7 NNW 6 7 3 4 - - -
20/06:00pm 17.2 16.5 12.1 72 2.8 NW 7 13 4 7 - - -
20/05:30pm 17.5 16.1 12.2 71 3.0 WNW 11 22 6 12 - - -
20/05:00pm 18.0 15.9 12.5 70 3.1 W 15 20 8 11 - - -
20/04:30pm 18.2 16.4 12.2 68 3.4 W 13 19 7 10 - - -
20/04:00pm 19.1 17.8 12.6 66 3.7 W 11 17 6 9 - - -
20/03:30pm 19.9 18.4 10.6 55 5.1 W 9 15 5 8 - - -
20/03:00pm 20.9 18.6 7.5 42 7.0 WNW 9 17 5 9 - - -
20/02:30pm 20.7 17.8 8.0 44 6.7 W 13 19 7 10 - - -
20/02:00pm 22.3 19.8 8.4 41 7.4 WNW 11 20 6 11 - - -
20/01:30pm 22.2 19.3 8.0 40 7.5 N 13 20 7 11 - - -
20/01:00pm 21.7 18.1 6.8 38 7.7 NNE 15 22 8 12 - - -
20/12:30pm 22.1 19.4 7.5 39 7.7 NNE 11 17 6 9 - - -
20/12:00pm 19.9 18.1 9.5 51 5.6 ENE 9 15 5 8 - - -
20/11:30am 18.6 15.9 10.2 58 4.5 E 15 22 8 12 - - -
20/11:00am 16.8 13.2 9.7 63 3.8 E 19 24 10 13 - - -
20/10:30am 15.7 11.6 10.0 69 3.0 E 22 32 12 17 - - -
20/10:00am 14.5 9.0 9.3 71 2.7 E 28 37 15 20 - - -
20/09:30am 13.9 8.9 9.7 76 2.2 E 26 35 14 19 - - -
20/09:00am 13.2 8.3 9.8 80 1.8 E 26 37 14 20 - - -
20/08:30am 13.0 8.1 10.0 82 1.6 E 26 35 14 19 - - -
20/08:00am 12.9 8.2 10.6 86 1.2 E 26 33 14 18 - - -
20/07:30am 12.0 6.9 10.7 92 0.7 E 28 35 15 19 - - -
20/07:00am 10.6 4.9 9.7 94 0.5 E 30 39 16 21 - - -
20/06:30am 11.3 6.5 10.2 93 0.6 ESE 26 33 14 18 - - -
20/06:00am 11.2 6.6 9.8 91 0.7 ESE 24 33 13 18 - - -
20/05:30am 12.4 8.0 10.5 88 1.0 ESE 24 33 13 18 - - -
20/05:00am 12.8 9.2 10.7 87 1.1 E 20 28 11 15 - - -
20/04:30am 12.7 9.3 10.6 87 1.1 ESE 19 28 10 15 - - -
20/04:00am 12.8 9.5 10.9 88 1.0 ESE 19 28 10 15 - - -
20/03:30am 13.0 9.3 11.4 90 0.9 ESE 22 28 12 15 - - -
20/03:00am 12.7 8.4 10.9 89 1.0 ESE 24 30 13 16 - - -
20/02:30am 13.0 9.3 11.6 91 0.8 ESE 22 28 12 15 - - -
20/02:00am 13.0 10.1 10.9 87 1.1 ESE 17 22 9 12 - - -
20/01:30am 14.3 12.0 11.6 84 1.5 ESE 15 19 8 10 - - -
20/01:00am 15.2 13.7 12.0 81 1.8 E 11 13 6 7 - - -
20/12:30am 15.4 14.3 12.0 80 1.9 E 9 11 5 6 - - -
20/12:00am 15.6 15.1 12.2 80 1.9 E 6 6 3 3 - - -
 
Date/Time
WST
Temp
°C
App
Temp
°C
Dew
Point
°C
Rel
Hum
%
Delta-T
°C
Wind Press
QNH
hPa
Press
MSL
hPa
Rain since
9am
mm
Dir  Spd
km/h
Gust
km/h
Spd
kts
Gust
kts
19/11:30pm 15.8 15.3 12.2 79 2.0 E 6 6 3 3 - - -
19/11:00pm 16.3 16.3 12.3 77 2.2 ESE 4 4 2 2 - - -
19/10:30pm 16.2 15.9 12.6 79 2.0 ESE 6 7 3 4 - - -
19/10:00pm 16.2 15.9 12.7 80 2.0 ESE 6 7 3 4 - - -
19/09:30pm 15.9 15.0 12.5 80 1.9 ESE 9 11 5 6 - - -
19/09:00pm 15.9 15.0 12.5 80 1.9 ESE 9 11 5 6 - - -
19/08:30pm 16.3 15.9 12.5 78 2.1 SE 6 9 3 5 - - -

Latest Capital City Observations: Canberra | Sydney | Melbourne | Brisbane | Adelaide | Perth | Hobart | Darwin

Other Formats:

Comma delimited format used in spreadsheet applications
http://www.bom.gov.au/fwo/IDW60901/IDW60901.94615.axf

JavaScript Object Notation format (JSON) in row-major order
http://www.bom.gov.au/fwo/IDW60901/IDW60901.94615.json